createdAt,value
2019-04-03T00:02:10.526Z,55.88
2019-04-03T00:04:41.061Z,55.96
2019-04-03T00:07:11.612Z,56.23
2019-04-03T00:09:42.062Z,56.31
2019-04-03T00:12:12.815Z,56.78
2019-04-03T00:14:43.314Z,56.48
2019-04-03T00:17:15.286Z,56.80
2019-04-03T00:19:47.736Z,56.56
2019-04-03T00:22:19.720Z,56.64
2019-04-03T00:24:52.588Z,56.56
2019-04-03T00:27:23.406Z,56.38
2019-04-03T00:29:54.057Z,56.61
2019-04-03T00:32:24.737Z,56.19
2019-04-03T00:34:55.302Z,56.44
2019-04-03T00:37:26.026Z,56.66
2019-04-03T00:39:56.497Z,56.67
2019-04-03T00:42:27.091Z,56.73
2019-04-03T00:44:57.746Z,56.89
2019-04-03T00:47:28.320Z,56.53
2019-04-03T00:49:59.239Z,56.67
2019-04-03T00:52:29.716Z,56.56
2019-04-03T00:55:00.223Z,56.85
2019-04-03T00:57:30.773Z,57.24
2019-04-03T01:00:01.300Z,57.00
2019-04-03T01:02:31.892Z,57.14
2019-04-03T01:05:02.481Z,57.21
2019-04-03T01:07:33.062Z,57.29
2019-04-03T01:10:03.681Z,57.36
2019-04-03T01:12:34.142Z,57.42
2019-04-03T01:15:05.336Z,57.20
2019-04-03T01:17:35.800Z,56.82
2019-04-03T01:20:07.811Z,57.16
2019-04-03T01:22:38.473Z,57.13
2019-04-03T01:25:09.866Z,57.03
2019-04-03T01:27:41.765Z,56.69
2019-04-03T01:30:13.997Z,56.43
2019-04-03T01:32:46.821Z,56.57
2019-04-03T01:35:17.826Z,56.07
2019-04-03T01:37:49.916Z,56.13
2019-04-03T01:40:21.203Z,55.96
2019-04-03T01:42:52.807Z,56.39
2019-04-03T01:45:25.870Z,56.48
2019-04-03T01:47:58.177Z,56.52
2019-04-03T01:50:29.233Z,56.25
2019-04-03T01:53:01.941Z,56.40
2019-04-03T01:55:34.106Z,56.60
2019-04-03T01:58:06.711Z,56.69
2019-04-03T02:00:37.657Z,56.89
2019-04-03T02:03:10.298Z,57.35
2019-04-03T02:05:43.247Z,57.53
2019-04-03T02:08:14.733Z,58.28
2019-04-03T02:10:48.235Z,58.44
2019-04-03T02:13:18.216Z,58.38
2019-04-03T02:15:49.046Z,58.31
2019-04-03T02:18:19.600Z,58.59
2019-04-03T02:20:50.232Z,58.35
2019-04-03T02:23:20.896Z,58.55
2019-04-03T02:25:51.610Z,58.50
2019-04-03T02:28:22.096Z,58.39
2019-04-03T02:30:52.747Z,58.41
2019-04-03T02:33:23.270Z,58.80
2019-04-03T02:35:54.083Z,59.14
2019-04-03T02:38:24.755Z,59.21
2019-04-03T02:40:55.563Z,59.25
2019-04-03T02:43:25.989Z,59.50
2019-04-03T02:45:57.235Z,59.44
2019-04-03T02:48:27.872Z,59.39
2019-04-03T02:50:58.616Z,59.49
2019-04-03T02:53:30.537Z,59.47
2019-04-03T02:56:01.292Z,59.36
2019-04-03T02:58:31.801Z,59.48
2019-04-03T03:01:05.243Z,59.26
2019-04-03T03:03:34.792Z,59.17
2019-04-03T03:06:06.333Z,59.51
2019-04-03T03:08:40.347Z,59.66
2019-04-03T03:11:10.032Z,59.52
2019-04-03T03:13:41.093Z,59.39
2019-04-03T03:16:11.913Z,59.66
2019-04-03T03:18:43.246Z,59.71
2019-04-03T03:21:14.895Z,59.42
2019-04-03T03:23:45.905Z,59.47
2019-04-03T03:26:16.653Z,59.46
2019-04-03T03:28:48.038Z,59.73
2019-04-03T03:31:19.571Z,59.86
2019-04-03T03:33:50.938Z,59.89
2019-04-03T03:36:25.484Z,60.17
2019-04-03T03:38:56.721Z,60.16
2019-04-03T03:41:27.637Z,60.20
2019-04-03T03:43:58.747Z,60.18
2019-04-03T03:46:29.882Z,60.48
2019-04-03T03:49:00.859Z,60.62
2019-04-03T03:51:34.064Z,60.58
2019-04-03T03:54:05.607Z,60.70
2019-04-03T03:56:36.431Z,60.49
2019-04-03T03:59:07.663Z,60.24
2019-04-03T04:01:38.579Z,60.11
2019-04-03T04:04:12.954Z,60.27
2019-04-03T04:06:41.725Z,60.04
2019-04-03T04:09:15.635Z,60.41
2019-04-03T04:11:44.934Z,60.38
2019-04-03T04:14:16.291Z,60.37
2019-04-03T04:16:46.944Z,60.25
2019-04-03T04:19:17.905Z,59.83
2019-04-03T04:21:49.394Z,59.95
2019-04-03T04:24:20.295Z,59.67
2019-04-03T04:26:51.301Z,60.05
2019-04-03T04:29:21.988Z,59.29
2019-04-03T04:31:52.540Z,58.94
2019-04-03T04:34:23.160Z,59.00
2019-04-03T04:36:55.374Z,59.04
2019-04-03T04:39:28.007Z,58.83
2019-04-03T04:41:58.620Z,59.02
2019-04-03T04:44:29.321Z,58.90
2019-04-03T04:46:59.886Z,58.59
2019-04-03T04:49:30.441Z,58.07
2019-04-03T04:52:01.311Z,57.75
2019-04-03T04:54:31.982Z,57.33
2019-04-03T04:57:02.671Z,57.26
2019-04-03T04:59:35.890Z,57.28
2019-04-03T05:02:05.777Z,56.84
2019-04-03T05:04:36.694Z,56.42
2019-04-03T05:07:07.493Z,56.57
2019-04-03T05:09:38.173Z,56.05
2019-04-03T05:12:09.733Z,55.84
2019-04-03T05:14:41.179Z,55.21
2019-04-03T05:17:11.977Z,54.76
2019-04-03T05:19:42.766Z,54.21
2019-04-03T05:22:13.421Z,54.11
2019-04-03T05:24:44.135Z,53.33
2019-04-03T05:27:14.863Z,53.10
2019-04-03T05:29:45.550Z,52.71
2019-04-03T05:32:16.468Z,52.05
2019-04-03T05:34:47.116Z,52.17
2019-04-03T05:37:20.212Z,52.08
2019-04-03T05:39:51.308Z,52.55
2019-04-03T05:42:22.176Z,52.96
2019-04-03T05:44:52.900Z,52.87
2019-04-03T05:47:23.833Z,52.94
2019-04-03T05:49:56.132Z,53.79
2019-04-03T05:52:27.207Z,53.72
2019-04-03T05:54:57.987Z,53.77
2019-04-03T05:57:29.578Z,53.53
2019-04-03T06:00:02.225Z,53.31
2019-04-03T06:02:32.681Z,53.68
2019-04-03T06:05:06.043Z,53.47
2019-04-03T06:07:35.749Z,53.47
2019-04-03T06:10:07.682Z,53.25
2019-04-03T06:12:38.407Z,53.38
2019-04-03T06:15:10.333Z,53.16
2019-04-03T06:17:41.162Z,53.63
2019-04-03T06:20:12.099Z,53.31
2019-04-03T06:22:42.780Z,53.60
2019-04-03T06:25:13.993Z,53.20
2019-04-03T06:27:46.899Z,52.71
2019-04-03T06:30:18.621Z,52.82
2019-04-03T06:32:49.284Z,52.68
2019-04-03T06:35:20.173Z,52.58
2019-04-03T06:37:52.531Z,52.15
2019-04-03T06:40:23.255Z,52.34
2019-04-03T06:42:54.715Z,52.71
2019-04-03T06:45:26.139Z,52.80
2019-04-03T06:47:57.814Z,52.46
2019-04-03T06:50:28.433Z,52.05
2019-04-03T06:52:59.031Z,52.22
2019-04-03T06:55:29.547Z,51.50
2019-04-03T06:58:00.241Z,51.79
2019-04-03T07:00:30.831Z,51.59
2019-04-03T07:03:03.442Z,51.42
2019-04-03T07:05:33.831Z,50.89
2019-04-03T07:08:05.936Z,50.47
2019-04-03T07:10:40.080Z,50.24
2019-04-03T07:13:09.774Z,50.46
2019-04-03T07:15:40.593Z,48.52
2019-04-03T07:18:11.500Z,46.41
2019-04-03T07:20:42.996Z,44.83
2019-04-03T07:23:13.882Z,43.85
2019-04-03T07:25:44.462Z,43.87
2019-04-03T07:28:15.147Z,45.49
2019-04-03T07:30:46.160Z,46.04
2019-04-03T07:33:16.757Z,46.52
2019-04-03T07:35:47.338Z,44.59
2019-04-03T07:38:18.085Z,44.51
2019-04-03T07:40:50.937Z,44.99
2019-04-03T07:43:21.086Z,45.51
2019-04-03T07:45:51.836Z,44.13
2019-04-03T07:48:22.464Z,42.20
2019-04-03T07:50:53.136Z,40.00
2019-04-03T07:53:24.025Z,38.41
2019-04-03T07:55:55.410Z,37.76
2019-04-03T07:58:26.857Z,38.48
2019-04-03T08:00:57.729Z,38.44
2019-04-03T08:03:28.417Z,38.54
2019-04-03T08:05:59.223Z,39.98
2019-04-03T08:08:30.022Z,40.29
2019-04-03T08:11:01.867Z,40.21
2019-04-03T08:13:33.420Z,39.67
2019-04-03T08:16:03.865Z,40.05
2019-04-03T08:18:34.664Z,39.09
2019-04-03T08:21:05.255Z,38.43
2019-04-03T08:23:36.730Z,39.08
2019-04-03T08:26:11.248Z,39.78
2019-04-03T08:28:40.957Z,39.86
2019-04-03T08:31:12.124Z,40.12
2019-04-03T08:33:43.125Z,41.00
2019-04-03T08:36:23.178Z,40.73
2019-04-03T08:38:46.490Z,40.59
2019-04-03T08:41:17.092Z,40.18
2019-04-03T08:43:47.850Z,39.71
2019-04-03T08:46:18.601Z,39.61
2019-04-03T08:48:49.263Z,37.67
2019-04-03T08:51:20.105Z,37.49
2019-04-03T08:53:53.647Z,37.01
2019-04-03T08:56:22.982Z,36.89
2019-04-03T08:58:56.509Z,36.11
2019-04-03T09:01:26.175Z,35.83
2019-04-03T09:03:56.812Z,35.97
2019-04-03T09:06:27.536Z,36.16
2019-04-03T09:08:58.699Z,36.26
2019-04-03T09:11:29.966Z,36.80
2019-04-03T09:14:00.799Z,36.26
2019-04-03T09:16:32.159Z,36.81
2019-04-03T09:19:03.264Z,36.75
2019-04-03T09:21:34.010Z,36.06
2019-04-03T09:24:04.819Z,35.92
2019-04-03T09:26:38.073Z,37.55
2019-04-03T09:29:08.038Z,36.47
2019-04-03T09:31:38.754Z,35.89
2019-04-03T09:34:09.481Z,36.59
2019-04-03T09:36:40.120Z,36.85
2019-04-03T09:39:13.967Z,34.85
2019-04-03T09:41:45.333Z,32.73
2019-04-03T09:44:16.041Z,32.69
2019-04-03T09:46:46.875Z,34.38
2019-04-03T09:49:17.601Z,35.09
2019-04-03T09:51:49.790Z,32.21
2019-04-03T09:54:20.637Z,31.09
2019-04-03T09:56:57.817Z,30.93
2019-04-03T09:59:23.807Z,31.09
2019-04-03T10:01:54.353Z,30.88
2019-04-03T10:04:26.069Z,30.16
2019-04-03T10:06:57.516Z,32.00
2019-04-03T10:09:28.178Z,29.67
2019-04-03T10:11:58.839Z,30.40
2019-04-03T10:14:30.014Z,29.92
2019-04-03T10:17:00.981Z,28.54
2019-04-03T10:19:31.616Z,29.65
2019-04-03T10:22:02.196Z,30.51
2019-04-03T10:24:33.258Z,31.10
2019-04-03T10:27:04.958Z,29.52
2019-04-03T10:29:35.748Z,30.09
2019-04-03T10:32:06.497Z,30.74
2019-04-03T10:34:37.015Z,30.88
2019-04-03T10:37:07.554Z,31.77
2019-04-03T10:39:41.964Z,29.75
2019-04-03T10:42:10.707Z,29.51
2019-04-03T10:44:41.250Z,27.72
2019-04-03T10:47:11.890Z,29.30
2019-04-03T10:49:42.473Z,27.66
2019-04-03T10:52:14.377Z,28.61
2019-04-03T10:54:45.081Z,27.71
2019-04-03T10:57:15.721Z,28.37
2019-04-03T10:59:47.935Z,29.71
2019-04-03T11:02:18.606Z,29.73
2019-04-03T11:04:49.084Z,28.99
2019-04-03T11:07:19.687Z,30.89
2019-04-03T11:09:50.283Z,31.32
2019-04-03T11:12:21.313Z,31.42
2019-04-03T11:14:52.165Z,31.97
2019-04-03T11:17:25.247Z,33.64
2019-04-03T11:19:55.391Z,32.32
2019-04-03T11:22:26.052Z,32.62
2019-04-03T11:24:56.691Z,32.68
2019-04-03T11:27:40.782Z,34.39
2019-04-03T11:30:00.275Z,33.80
2019-04-03T11:32:31.101Z,34.74
2019-04-03T11:35:01.739Z,34.02
2019-04-03T11:37:33.476Z,33.75
2019-04-03T11:40:05.862Z,34.04
2019-04-03T11:42:36.830Z,33.18
2019-04-03T11:45:08.376Z,33.09
2019-04-03T11:47:39.231Z,33.40
2019-04-03T11:50:11.152Z,34.37
2019-04-03T11:52:42.244Z,33.50
2019-04-03T11:55:13.457Z,33.91
2019-04-03T11:57:47.223Z,33.91
2019-04-03T12:00:20.100Z,32.26
2019-04-03T12:02:51.159Z,34.66
2019-04-03T12:05:21.780Z,33.49
2019-04-03T12:07:52.286Z,33.93
2019-04-03T12:10:25.383Z,34.00
2019-04-03T12:12:55.381Z,34.20
2019-04-03T12:15:26.101Z,34.31
2019-04-03T12:17:56.877Z,34.44
2019-04-03T12:20:27.595Z,34.36
2019-04-03T12:22:58.271Z,33.41
2019-04-03T12:25:28.851Z,32.87
2019-04-03T12:27:59.374Z,34.39
2019-04-03T12:30:30.374Z,33.39
2019-04-03T12:33:01.088Z,34.45
2019-04-03T12:35:31.959Z,34.54
2019-04-03T12:38:02.794Z,34.30
2019-04-03T12:40:33.665Z,35.00
2019-04-03T12:43:04.391Z,34.58
2019-04-03T12:45:35.211Z,34.51
2019-04-03T12:48:05.893Z,34.13
2019-04-03T12:50:36.925Z,34.46
2019-04-03T12:53:07.651Z,34.15
2019-04-03T12:55:38.361Z,34.36
2019-04-03T12:58:09.009Z,33.80
2019-04-03T13:00:40.161Z,34.64
2019-04-03T13:03:11.299Z,34.15
2019-04-03T13:05:42.048Z,34.16
2019-04-03T13:08:12.791Z,35.04
2019-04-03T13:10:47.846Z,34.86
2019-04-03T13:13:16.047Z,34.72
2019-04-03T13:15:47.050Z,34.69
2019-04-03T13:18:17.796Z,35.15
2019-04-03T13:20:48.798Z,34.83
2019-04-03T13:23:19.471Z,35.02
2019-04-03T13:25:51.002Z,34.20
2019-04-03T13:28:22.772Z,34.70
2019-04-03T13:30:53.477Z,34.69
2019-04-03T13:33:24.444Z,34.59
2019-04-03T13:35:55.134Z,34.22
2019-04-03T13:38:27.797Z,34.61
2019-04-03T13:40:58.385Z,34.42
2019-04-03T13:43:29.332Z,33.20
2019-04-03T13:46:00.191Z,32.08
2019-04-03T13:48:31.115Z,32.23
2019-04-03T13:51:01.910Z,32.49
2019-04-03T13:53:32.406Z,32.55
2019-04-03T13:56:05.500Z,34.43
2019-04-03T13:58:35.463Z,33.21
2019-04-03T14:01:09.249Z,33.16
2019-04-03T14:03:38.992Z,33.63
2019-04-03T14:06:09.722Z,34.61
2019-04-03T14:08:40.401Z,34.36
2019-04-03T14:11:11.188Z,33.58
2019-04-03T14:13:43.673Z,33.85
2019-04-03T14:16:21.647Z,32.71
2019-04-03T14:18:49.452Z,32.84
2019-04-03T14:21:19.097Z,32.58
2019-04-03T14:23:49.791Z,33.77
2019-04-03T14:26:20.469Z,32.38
2019-04-03T14:28:50.999Z,32.64
2019-04-03T14:31:33.390Z,32.70
2019-04-03T14:33:54.951Z,32.13
2019-04-03T14:36:27.849Z,32.79
2019-04-03T14:38:58.762Z,32.39
2019-04-03T14:41:29.892Z,33.38
2019-04-03T14:44:02.939Z,32.74
2019-04-03T14:46:33.988Z,32.03
2019-04-03T14:49:04.790Z,32.43
2019-04-03T14:51:35.423Z,33.23
2019-04-03T14:54:08.106Z,32.18
2019-04-03T14:56:39.118Z,32.58
2019-04-03T14:59:10.145Z,32.34
2019-04-03T15:01:41.011Z,33.46
2019-04-03T15:04:11.934Z,33.60
2019-04-03T15:06:44.196Z,34.53
2019-04-03T15:09:15.548Z,33.38
2019-04-03T15:11:46.377Z,33.06
2019-04-03T15:14:17.555Z,33.43
2019-04-03T15:16:48.717Z,33.39
2019-04-03T15:19:19.397Z,31.67
2019-04-03T15:21:50.542Z,31.91
2019-04-03T15:24:21.266Z,31.80
2019-04-03T15:26:53.486Z,32.21
2019-04-03T15:29:24.337Z,32.54
2019-04-03T15:31:55.280Z,32.18
2019-04-03T15:34:27.745Z,33.04
2019-04-03T15:36:58.721Z,32.24
2019-04-03T15:39:29.935Z,32.66
2019-04-03T15:42:01.031Z,32.01
2019-04-03T15:44:31.998Z,33.31
2019-04-03T15:47:03.003Z,32.28
2019-04-03T15:49:34.016Z,32.87
2019-04-03T15:52:04.996Z,32.97
2019-04-03T15:54:35.851Z,33.08
2019-04-03T15:57:06.590Z,33.81
2019-04-03T15:59:37.559Z,33.38
2019-04-03T16:02:10.517Z,32.76
2019-04-03T16:04:40.926Z,34.36
2019-04-03T16:07:11.526Z,35.00
2019-04-03T16:09:42.516Z,33.80
2019-04-03T16:12:13.654Z,33.09
2019-04-03T16:14:44.642Z,33.33
2019-04-03T16:17:15.567Z,33.27
2019-04-03T16:19:46.311Z,32.60
2019-04-03T16:22:17.195Z,32.73
2019-04-03T16:24:47.891Z,33.32
2019-04-03T16:27:18.711Z,32.65
2019-04-03T16:29:49.331Z,33.18
2019-04-03T16:32:19.840Z,32.82
2019-04-03T16:34:50.716Z,33.02
2019-04-03T16:37:22.795Z,33.25
2019-04-03T16:39:54.063Z,34.43
2019-04-03T16:42:24.845Z,34.46
2019-04-03T16:44:57.558Z,34.41
2019-04-03T16:47:27.960Z,34.48
2019-04-03T16:49:58.739Z,34.32
2019-04-03T16:52:30.310Z,34.79
2019-04-03T16:55:01.048Z,33.67
2019-04-03T16:57:31.870Z,34.37
2019-04-03T17:00:02.506Z,34.33
2019-04-03T17:02:33.295Z,34.56
2019-04-03T17:05:06.215Z,35.14
2019-04-03T17:07:38.392Z,35.42
2019-04-03T17:10:10.593Z,35.73
2019-04-03T17:12:41.551Z,36.02
2019-04-03T17:15:13.261Z,36.19
2019-04-03T17:17:46.229Z,36.42
2019-04-03T17:20:17.147Z,36.13
2019-04-03T17:22:48.325Z,36.36
2019-04-03T17:25:18.975Z,36.69
2019-04-03T17:27:57.350Z,36.69
2019-04-03T17:30:22.759Z,36.49
2019-04-03T17:32:53.489Z,36.43
2019-04-03T17:35:29.122Z,36.54
2019-04-03T17:38:00.932Z,37.28
2019-04-03T17:40:32.628Z,37.46
2019-04-03T17:43:07.192Z,37.71
2019-04-03T17:45:37.905Z,37.56
2019-04-03T17:48:10.051Z,37.48
2019-04-03T17:50:41.101Z,37.75
2019-04-03T17:53:11.860Z,37.43
2019-04-03T17:55:45.278Z,37.58
2019-04-03T17:58:16.863Z,37.80
2019-04-03T18:00:47.756Z,37.19
2019-04-03T18:03:19.593Z,37.39
2019-04-03T18:05:52.776Z,37.80
2019-04-03T18:08:27.082Z,37.85
2019-04-03T18:10:59.226Z,38.01
2019-04-03T18:13:29.975Z,37.87
2019-04-03T18:16:01.716Z,37.69
2019-04-03T18:18:33.410Z,38.27
2019-04-03T18:21:05.350Z,37.99
2019-04-03T18:23:38.510Z,37.93
2019-04-03T18:26:09.722Z,38.42
2019-04-03T18:28:45.059Z,38.68
2019-04-03T18:31:18.205Z,38.30
2019-04-03T18:33:51.456Z,38.92
2019-04-03T18:36:22.394Z,38.53
2019-04-03T18:38:54.235Z,38.71
2019-04-03T18:41:34.715Z,39.29
2019-04-03T18:44:06.570Z,38.93
2019-04-03T18:46:40.681Z,39.42
2019-04-03T18:49:12.391Z,39.36
2019-04-03T18:51:55.110Z,39.46
2019-04-03T18:54:27.077Z,39.91
2019-04-03T18:56:59.477Z,40.21
2019-04-03T18:59:31.457Z,40.23
2019-04-03T19:02:04.604Z,40.21
2019-04-03T19:04:37.683Z,40.44
2019-04-03T19:07:10.548Z,40.91
2019-04-03T19:09:47.777Z,41.54
2019-04-03T19:12:34.972Z,41.29
2019-04-03T19:15:02.515Z,41.59
2019-04-03T19:17:36.428Z,41.80
2019-04-03T19:20:13.247Z,41.62
2019-04-03T19:23:02.508Z,41.60
2019-04-03T19:25:37.761Z,41.86
2019-04-03T19:28:09.481Z,42.97
2019-04-03T19:30:41.445Z,41.92
2019-04-03T19:33:15.497Z,42.29
2019-04-03T19:35:48.574Z,41.47
2019-04-03T19:38:25.409Z,42.19
2019-04-03T19:41:03.591Z,42.19
2019-04-03T19:43:38.384Z,41.91
2019-04-03T19:46:09.211Z,42.60
2019-04-03T19:48:42.686Z,42.46
2019-04-03T19:51:16.836Z,42.12
2019-04-03T19:53:59.114Z,42.72
2019-04-03T19:56:31.554Z,43.10
2019-04-03T19:59:05.373Z,43.02
2019-04-03T20:01:39.573Z,42.02
2019-04-03T20:04:11.660Z,42.30
2019-04-03T20:06:47.071Z,43.07
2019-04-03T20:09:17.917Z,42.69
2019-04-03T20:11:58.432Z,42.55
2019-04-03T20:14:31.891Z,42.71
2019-04-03T20:17:03.025Z,42.43
2019-04-03T20:19:34.963Z,42.92
2019-04-03T20:22:07.541Z,44.10
2019-04-03T20:24:43.733Z,45.16
2019-04-03T20:27:17.214Z,46.29
2019-04-03T20:29:52.709Z,45.97
2019-04-03T20:32:31.381Z,45.42
2019-04-03T20:35:02.015Z,45.33
2019-04-03T20:37:32.778Z,45.11
2019-04-03T20:40:03.805Z,45.49
2019-04-03T20:42:34.517Z,44.86
2019-04-03T20:45:06.011Z,45.00
2019-04-03T20:47:36.651Z,45.23
2019-04-03T20:50:08.246Z,45.27
2019-04-03T20:52:39.069Z,44.82
2019-04-03T20:55:10.496Z,45.26
2019-04-03T20:57:41.072Z,45.05
2019-04-03T21:00:14.361Z,45.05
2019-04-03T21:02:45.241Z,44.36
2019-04-03T21:05:18.116Z,44.35
2019-04-03T21:07:48.457Z,44.02
2019-04-03T21:10:20.179Z,43.60
2019-04-03T21:12:51.104Z,44.41
2019-04-03T21:15:21.796Z,43.87
2019-04-03T21:17:52.411Z,44.43
2019-04-03T21:20:23.809Z,44.76
2019-04-03T21:22:55.365Z,44.94
2019-04-03T21:25:26.071Z,45.26
2019-04-03T21:28:01.750Z,44.49
2019-04-03T21:30:32.457Z,44.94
2019-04-03T21:33:03.509Z,45.22
2019-04-03T21:35:35.268Z,45.63
2019-04-03T21:38:06.741Z,45.47
2019-04-03T21:40:37.898Z,45.58
2019-04-03T21:43:08.521Z,45.11
2019-04-03T21:45:39.189Z,44.94
2019-04-03T21:48:09.944Z,45.00
2019-04-03T21:50:40.641Z,44.55
2019-04-03T21:53:11.274Z,44.08
2019-04-03T21:55:42.034Z,44.61
2019-04-03T21:58:12.701Z,44.38
2019-04-03T22:01:23.241Z,45.30
2019-04-03T22:03:54.552Z,45.50
2019-04-03T22:06:27.541Z,45.70
2019-04-03T22:08:59.675Z,45.82
2019-04-03T22:11:30.127Z,45.62
2019-04-03T22:14:00.711Z,46.24
2019-04-03T22:16:31.341Z,46.04
2019-04-03T22:19:01.882Z,45.69
2019-04-03T22:21:33.055Z,45.68
2019-04-03T22:24:06.596Z,46.27
2019-04-03T22:26:36.172Z,45.90
2019-04-03T22:29:07.260Z,46.23
2019-04-03T22:31:37.971Z,46.17
2019-04-03T22:34:08.701Z,46.15
2019-04-03T22:36:39.256Z,46.45
2019-04-03T22:39:10.350Z,46.19
2019-04-03T22:41:42.823Z,46.63
2019-04-03T22:44:16.768Z,47.12
2019-04-03T22:46:45.878Z,47.03
2019-04-03T22:49:16.668Z,46.87
2019-04-03T22:51:47.380Z,46.86
2019-04-03T22:54:18.623Z,46.37
2019-04-03T22:56:49.676Z,46.72
2019-04-03T22:59:23.592Z,47.04
2019-04-03T23:01:52.826Z,47.11
2019-04-03T23:04:23.497Z,47.18
2019-04-03T23:06:54.511Z,47.49
2019-04-03T23:09:25.543Z,47.02
2019-04-03T23:11:56.397Z,47.13
2019-04-03T23:14:26.998Z,47.72
2019-04-03T23:16:57.678Z,47.74
2019-04-03T23:19:28.392Z,47.92
2019-04-03T23:21:59.208Z,48.34
2019-04-03T23:24:29.850Z,48.71
2019-04-03T23:27:02.426Z,49.51
2019-04-03T23:29:35.912Z,49.93
2019-04-03T23:32:05.164Z,50.29
2019-04-03T23:34:36.161Z,50.81
2019-04-03T23:37:06.836Z,51.60
2019-04-03T23:39:37.439Z,51.90
2019-04-03T23:42:08.135Z,52.41
2019-04-03T23:44:41.720Z,52.23
2019-04-03T23:47:11.361Z,52.87
2019-04-03T23:49:42.032Z,53.29
2019-04-03T23:52:12.750Z,53.60
2019-04-03T23:54:43.315Z,53.24
2019-04-03T23:57:14.341Z,53.00
2019-04-03T23:59:45.025Z,52.80
